Main page
METAR-TAF:

METAR-TAF

Airports :

Srinagar International Airport

Srinagar, India

latitude: 33-59-14N, longitude: 074-46-27E, elevation: 1655 m

Current weather observation

The report was made 1 hour and 1 minutes ago, at 00:30 UTC
Wind 1 kt from variable directions
Temperature 6°C
Humidity 93%
Pressure 1019 hPa
Visibility: 6000 m
Few clouds at a height of 20000 ft

METAR: VISR 190030Z VRB01KT 6000 FEW200 06/05 Q1019 NOSIG

Time: 07:01 (01:31 UTC)

Forecast

The report was made 10 hours and 1 minutes ago, at 15:30 UTC
Forecast valid from 19 at 00 UTC to 19 at 12 UTC
Wind 10 kt from the West/Southwest
Visibility: 6000 m
Few clouds at a height of 3000 ft
Scattered clouds at a height of 9000 ft
Temporary
from 19 at 08 UTC to 19 at 12 UTC
Visibility: 6000 m
Scattered clouds at a height of 2500 ft
Few clouds at a height of 3000 ft, Cumulonimbus.
Scattered clouds at a height of 9000 ft

TAF: VISR 181530Z 1900/1912 24010KT 6000 FEW030 SCT090 TEMPO 1908/1912 6000 SCT025 FEW030CB SCT090

Weather observations and forecasts of more than 4000 airports (METAR and TAF reports).

The available stations are represented by yellow and red dots on the map.

Hover mouse over dot to see the name of the station.

Then click to see weather observations and forecasts.

To change the map : click on the green buttons with a black cross to zoom in, on the green button with a dash to zoom out, or on the green arrows for adjacent maps.


METAR-TAF: